Aérodrome :
LOGIN :

S'inscrire | Disclaimer

   EN    FR    IT 

 










Légende :    VFR   VFR Marginal   IFR   IFR Intensif   IFR Très Intensif
Visi : 
Plafond : 
>= 8 km
>= 3000ft
5 à 8 km
1000 à 3000 ft
1500m à 5 km
500 à 1000 ft
800 à 1500m
200 à 500 ft
< 800m
< 200 ft
Symboles :   Orages  Brouillard  Fortes neiges  Fortes précipitations  Vent > 20 kt
SIGMETs :   Divers  Orages  Givrage  Turbulence  Onde Orograph.  Cendres Volcan.







- Altitude de l'aérodrome : 194 ft


EBCV - Chièvres

DERNIER METAR :
  • 200725Z AUTO 19008KT 9999 OVC051/// 03/02 Q1020 BLU

METARs EXPIRÉS :
  • 200655Z AUTO 21008KT 9999 OVC038/// 03/02 Q1021 BLU
  • 200625Z AUTO 21008KT 9999 OVC042/// 03/02 Q1021 BLU
  • 200555Z AUTO 21008KT 9999 BKN076/// 03/02 Q1021 BLU
  • 200525Z AUTO 19007KT 9999 SCT082/// BKN170/// 02/01 Q1021 BLU
  • 200455Z AUTO 19006KT 9999 FEW095/// OVC160/// 02/01 Q1021 BLU

TAF TAF EBCV
Valide du 20 à 07h jusqu'au 20 à 16h UTC


200541Z 2007/2016 23512KT 9999 BKN040
BECMG 2008/2010 FEW012 BKN020
TEMPO 2008/2016 4000 -RA BKN010
PROB40
TEMPO 2009/2016 24013G25KT 2000 RADZ SCT005 BKN010 BY EBWM
Pas de NOTAMs connus pour ce terrain.



MET'MAP, la Météo Aéronautique d'un coup d'oeil ! - Copyright ORBIFLY Décembre 2007 - Disclaimer

ORBIFLY MET'MAP TEAM :

Programmation & Développement : Alexandra Zaïnal
Conception & Développement : Baudouin d'Aumeries
Co-Programmation & Développement : Marc-Olivier Méhu
Soutien technique & logistique : Manuel Goepfert

Contact : metmap@orbifly.com




SOURCES & CREDITS :

   NOAA